sensor_id;sensor_type;location;lat;lon;timestamp;temperature;humidity
21167;DHT22;10741;52.272;9.580;2024-02-14T00:01:08;7.30;99.90
21167;DHT22;10741;52.272;9.580;2024-02-14T00:03:35;7.30;99.90
21167;DHT22;10741;52.272;9.580;2024-02-14T00:06:00;7.20;99.90
21167;DHT22;10741;52.272;9.580;2024-02-14T00:08:26;7.30;99.90
21167;DHT22;10741;52.272;9.580;2024-02-14T00:10:52;7.30;99.90
21167;DHT22;10741;52.272;9.580;2024-02-14T00:13:17;7.30;99.90
21167;DHT22;10741;52.272;9.580;2024-02-14T00:15:46;7.20;99.90
21167;DHT22;10741;52.272;9.580;2024-02-14T00:18:12;7.20;99.90
21167;DHT22;10741;52.272;9.580;2024-02-14T00:20:37;7.20;99.90
21167;DHT22;10741;52.272;9.580;2024-02-14T00:23:04;7.30;99.90
21167;DHT22;10741;52.272;9.580;2024-02-14T00:25:30;7.30;99.90
21167;DHT22;10741;52.272;9.580;2024-02-14T00:27:56;7.30;99.90
21167;DHT22;10741;52.272;9.580;2024-02-14T00:30:21;7.30;99.90
21167;DHT22;10741;52.272;9.580;2024-02-14T00:32:48;7.30;99.90
21167;DHT22;10741;52.272;9.580;2024-02-14T00:35:14;7.30;99.90
21167;DHT22;10741;52.272;9.580;2024-02-14T00:37:40;7.20;99.90
21167;DHT22;10741;52.272;9.580;2024-02-14T00:40:06;7.20;99.90
21167;DHT22;10741;52.272;9.580;2024-02-14T00:42:32;7.20;99.90
21167;DHT22;10741;52.272;9.580;2024-02-14T00:44:57;7.20;99.90
21167;DHT22;10741;52.272;9.580;2024-02-14T00:47:23;7.10;99.90
21167;DHT22;10741;52.272;9.580;2024-02-14T00:49:49;7.20;99.90
21167;DHT22;10741;52.272;9.580;2024-02-14T00:52:14;7.20;99.90
21167;DHT22;10741;52.272;9.580;2024-02-14T00:54:42;7.20;99.90
21167;DHT22;10741;52.272;9.580;2024-02-14T00:57:08;7.10;99.90
21167;DHT22;10741;52.272;9.580;2024-02-14T00:59:33;7.10;99.90
21167;DHT22;10741;52.272;9.580;2024-02-14T01:01:59;7.00;99.90
21167;DHT22;10741;52.272;9.580;2024-02-14T01:04:25;7.00;99.90
21167;DHT22;10741;52.272;9.580;2024-02-14T01:06:51;7.00;99.90
21167;DHT22;10741;52.272;9.580;2024-02-14T01:09:18;7.00;99.90
21167;DHT22;10741;52.272;9.580;2024-02-14T01:11:44;7.00;99.90
21167;DHT22;10741;52.272;9.580;2024-02-14T01:14:10;7.00;99.90
21167;DHT22;10741;52.272;9.580;2024-02-14T01:16:43;7.00;99.90
21167;DHT22;10741;52.272;9.580;2024-02-14T01:19:10;7.00;99.90
21167;DHT22;10741;52.272;9.580;2024-02-14T01:21:35;7.00;99.90
21167;DHT22;10741;52.272;9.580;2024-02-14T01:24:01;7.10;99.90
21167;DHT22;10741;52.272;9.580;2024-02-14T01:26:27;7.10;99.90
21167;DHT22;10741;52.272;9.580;2024-02-14T01:28:52;7.00;99.90
21167;DHT22;10741;52.272;9.580;2024-02-14T01:31:18;7.10;99.90
21167;DHT22;10741;52.272;9.580;2024-02-14T01:33:45;7.10;99.90
21167;DHT22;10741;52.272;9.580;2024-02-14T01:36:11;7.20;99.90
21167;DHT22;10741;52.272;9.580;2024-02-14T01:38:37;7.20;99.90
21167;DHT22;10741;52.272;9.580;2024-02-14T01:41:03;7.30;99.90
21167;DHT22;10741;52.272;9.580;2024-02-14T01:43:29;7.30;99.90
21167;DHT22;10741;52.272;9.580;2024-02-14T01:46:04;7.30;99.90
21167;DHT22;10741;52.272;9.580;2024-02-14T01:48:30;7.30;99.90
21167;DHT22;10741;52.272;9.580;2024-02-14T01:50:56;7.30;99.90
21167;DHT22;10741;52.272;9.580;2024-02-14T01:53:22;7.30;99.90
21167;DHT22;10741;52.272;9.580;2024-02-14T01:55:47;7.50;99.90
21167;DHT22;10741;52.272;9.580;2024-02-14T01:58:14;7.60;99.90
21167;DHT22;10741;52.272;9.580;2024-02-14T02:00:39;7.50;99.90
21167;DHT22;10741;52.272;9.580;2024-02-14T02:03:11;7.50;99.90
21167;DHT22;10741;52.272;9.580;2024-02-14T02:05:36;7.50;99.90
21167;DHT22;10741;52.272;9.580;2024-02-14T02:08:02;7.50;99.90
21167;DHT22;10741;52.272;9.580;2024-02-14T02:10:28;7.50;99.90
21167;DHT22;10741;52.272;9.580;2024-02-14T02:13:00;7.50;99.90
21167;DHT22;10741;52.272;9.580;2024-02-14T02:15:26;7.50;99.90
21167;DHT22;10741;52.272;9.580;2024-02-14T02:17:54;7.50;99.90
21167;DHT22;10741;52.272;9.580;2024-02-14T02:20:20;7.50;99.90
21167;DHT22;10741;52.272;9.580;2024-02-14T02:22:49;7.50;99.90
21167;DHT22;10741;52.272;9.580;2024-02-14T02:25:15;7.40;99.90
21167;DHT22;10741;52.272;9.580;2024-02-14T02:27:40;7.40;99.90
21167;DHT22;10741;52.272;9.580;2024-02-14T02:30:07;7.30;99.90
21167;DHT22;10741;52.272;9.580;2024-02-14T02:32:34;7.20;99.90
21167;DHT22;10741;52.272;9.580;2024-02-14T02:34:59;7.20;99.90
21167;DHT22;10741;52.272;9.580;2024-02-14T02:37:28;7.20;99.90
21167;DHT22;10741;52.272;9.580;2024-02-14T02:39:56;7.20;99.90
21167;DHT22;10741;52.272;9.580;2024-02-14T02:42:22;7.20;99.90
21167;DHT22;10741;52.272;9.580;2024-02-14T02:44:50;7.20;99.90
21167;DHT22;10741;52.272;9.580;2024-02-14T02:47:15;7.20;99.90
21167;DHT22;10741;52.272;9.580;2024-02-14T02:49:43;7.20;99.90
21167;DHT22;10741;52.272;9.580;2024-02-14T02:52:10;7.20;99.90
21167;DHT22;10741;52.272;9.580;2024-02-14T02:54:36;7.20;99.90
21167;DHT22;10741;52.272;9.580;2024-02-14T02:57:01;7.30;99.90
21167;DHT22;10741;52.272;9.580;2024-02-14T02:59:28;7.30;99.90
21167;DHT22;10741;52.272;9.580;2024-02-14T03:01:55;7.40;99.90
21167;DHT22;10741;52.272;9.580;2024-02-14T03:04:21;7.30;99.90
21167;DHT22;10741;52.272;9.580;2024-02-14T03:06:46;7.30;99.90
21167;DHT22;10741;52.272;9.580;2024-02-14T03:09:12;7.20;99.90
21167;DHT22;10741;52.272;9.580;2024-02-14T03:11:39;7.20;99.90
21167;DHT22;10741;52.272;9.580;2024-02-14T03:14:06;7.20;99.90
21167;DHT22;10741;52.272;9.580;2024-02-14T03:16:33;7.10;99.90
21167;DHT22;10741;52.272;9.580;2024-02-14T03:18:59;7.10;99.90
21167;DHT22;10741;52.272;9.580;2024-02-14T03:21:26;7.10;99.90
21167;DHT22;10741;52.272;9.580;2024-02-14T03:23:53;7.20;99.90
21167;DHT22;10741;52.272;9.580;2024-02-14T03:26:19;7.20;99.90
21167;DHT22;10741;52.272;9.580;2024-02-14T03:28:45;7.30;99.90
21167;DHT22;10741;52.272;9.580;2024-02-14T03:31:10;7.30;99.90
21167;DHT22;10741;52.272;9.580;2024-02-14T03:33:40;7.40;99.90
21167;DHT22;10741;52.272;9.580;2024-02-14T03:36:05;7.40;99.90
21167;DHT22;10741;52.272;9.580;2024-02-14T03:38:31;7.30;99.90
21167;DHT22;10741;52.272;9.580;2024-02-14T03:40:57;7.40;99.90
21167;DHT22;10741;52.272;9.580;2024-02-14T03:43:22;7.40;99.90
21167;DHT22;10741;52.272;9.580;2024-02-14T03:45:49;7.40;99.90
21167;DHT22;10741;52.272;9.580;2024-02-14T03:48:16;7.40;99.90
21167;DHT22;10741;52.272;9.580;2024-02-14T03:50:42;7.40;99.90
21167;DHT22;10741;52.272;9.580;2024-02-14T03:53:08;7.30;99.90
21167;DHT22;10741;52.272;9.580;2024-02-14T03:55:37;7.30;99.90
21167;DHT22;10741;52.272;9.580;2024-02-14T03:58:03;7.30;99.90
21167;DHT22;10741;52.272;9.580;2024-02-14T04:00:30;7.30;99.90
21167;DHT22;10741;52.272;9.580;2024-02-14T04:02:55;7.30;99.90
21167;DHT22;10741;52.272;9.580;2024-02-14T04:05:25;7.40;99.90
21167;DHT22;10741;52.272;9.580;2024-02-14T04:07:52;7.40;99.90
21167;DHT22;10741;52.272;9.580;2024-02-14T04:10:20;7.40;99.90
21167;DHT22;10741;52.272;9.580;2024-02-14T04:12:46;7.50;99.90
21167;DHT22;10741;52.272;9.580;2024-02-14T04:15:12;7.50;99.90
21167;DHT22;10741;52.272;9.580;2024-02-14T04:17:39;7.40;99.90
21167;DHT22;10741;52.272;9.580;2024-02-14T04:20:05;7.40;99.90
21167;DHT22;10741;52.272;9.580;2024-02-14T04:22:31;7.40;99.90
21167;DHT22;10741;52.272;9.580;2024-02-14T04:24:57;7.20;99.90
21167;DHT22;10741;52.272;9.580;2024-02-14T04:27:22;7.10;99.90
21167;DHT22;10741;52.272;9.580;2024-02-14T04:29:48;6.90;99.90
21167;DHT22;10741;52.272;9.580;2024-02-14T04:32:14;6.90;99.90
21167;DHT22;10741;52.272;9.580;2024-02-14T04:34:40;6.90;99.90
21167;DHT22;10741;52.272;9.580;2024-02-14T04:37:07;6.80;99.90
21167;DHT22;10741;52.272;9.580;2024-02-14T04:39:38;6.80;99.90
21167;DHT22;10741;52.272;9.580;2024-02-14T04:42:04;6.80;99.90
21167;DHT22;10741;52.272;9.580;2024-02-14T04:44:31;6.80;99.90
21167;DHT22;10741;52.272;9.580;2024-02-14T04:46:57;6.80;99.90
21167;DHT22;10741;52.272;9.580;2024-02-14T04:49:24;6.80;99.90
21167;DHT22;10741;52.272;9.580;2024-02-14T04:51:51;6.80;99.90
21167;DHT22;10741;52.272;9.580;2024-02-14T04:54:17;6.80;99.90
21167;DHT22;10741;52.272;9.580;2024-02-14T04:56:42;6.80;99.90
21167;DHT22;10741;52.272;9.580;2024-02-14T04:59:08;6.90;99.90
21167;DHT22;10741;52.272;9.580;2024-02-14T05:01:34;6.90;99.90
21167;DHT22;10741;52.272;9.580;2024-02-14T05:04:00;6.80;99.90
21167;DHT22;10741;52.272;9.580;2024-02-14T05:06:26;6.90;99.90
21167;DHT22;10741;52.272;9.580;2024-02-14T05:08:51;6.90;99.90
21167;DHT22;10741;52.272;9.580;2024-02-14T05:11:17;6.90;99.90
21167;DHT22;10741;52.272;9.580;2024-02-14T05:13:44;6.90;99.90
21167;DHT22;10741;52.272;9.580;2024-02-14T05:16:09;7.00;99.90
21167;DHT22;10741;52.272;9.580;2024-02-14T05:18:39;7.00;99.90
21167;DHT22;10741;52.272;9.580;2024-02-14T05:21:06;7.00;99.90
21167;DHT22;10741;52.272;9.580;2024-02-14T05:23:31;7.00;99.90
21167;DHT22;10741;52.272;9.580;2024-02-14T05:25:57;7.00;99.90
21167;DHT22;10741;52.272;9.580;2024-02-14T05:28:23;7.00;99.90
21167;DHT22;10741;52.272;9.580;2024-02-14T05:30:48;7.00;99.90
21167;DHT22;10741;52.272;9.580;2024-02-14T05:33:14;7.00;99.90
21167;DHT22;10741;52.272;9.580;2024-02-14T05:35:40;7.00;99.90
21167;DHT22;10741;52.272;9.580;2024-02-14T05:38:05;7.00;99.90
21167;DHT22;10741;52.272;9.580;2024-02-14T05:40:33;7.00;99.90
21167;DHT22;10741;52.272;9.580;2024-02-14T05:42:59;7.00;99.90
21167;DHT22;10741;52.272;9.580;2024-02-14T05:45:24;7.10;99.90
21167;DHT22;10741;52.272;9.580;2024-02-14T05:47:50;7.10;99.90
21167;DHT22;10741;52.272;9.580;2024-02-14T05:50:17;7.10;99.90
21167;DHT22;10741;52.272;9.580;2024-02-14T05:52:42;7.10;99.90
21167;DHT22;10741;52.272;9.580;2024-02-14T05:55:08;7.10;99.90
21167;DHT22;10741;52.272;9.580;2024-02-14T05:57:34;7.10;99.90
21167;DHT22;10741;52.272;9.580;2024-02-14T06:00:00;7.20;99.90
21167;DHT22;10741;52.272;9.580;2024-02-14T06:02:26;7.20;99.90
21167;DHT22;10741;52.272;9.580;2024-02-14T06:04:52;7.20;99.90
21167;DHT22;10741;52.272;9.580;2024-02-14T06:07:17;7.20;99.90
21167;DHT22;10741;52.272;9.580;2024-02-14T06:09:43;7.20;99.90
21167;DHT22;10741;52.272;9.580;2024-02-14T06:12:08;7.20;99.90
21167;DHT22;10741;52.272;9.580;2024-02-14T06:14:36;7.20;99.90
21167;DHT22;10741;52.272;9.580;2024-02-14T06:17:02;7.20;99.90
21167;DHT22;10741;52.272;9.580;2024-02-14T06:19:27;7.20;99.90
21167;DHT22;10741;52.272;9.580;2024-02-14T06:21:53;7.20;99.90
21167;DHT22;10741;52.272;9.580;2024-02-14T06:24:19;7.20;99.90
21167;DHT22;10741;52.272;9.580;2024-02-14T06:26:48;7.30;99.90
21167;DHT22;10741;52.272;9.580;2024-02-14T06:29:13;7.30;99.90
21167;DHT22;10741;52.272;9.580;2024-02-14T06:31:39;7.30;99.90
21167;DHT22;10741;52.272;9.580;2024-02-14T06:34:04;7.30;99.90
21167;DHT22;10741;52.272;9.580;2024-02-14T06:36:32;7.30;99.90
21167;DHT22;10741;52.272;9.580;2024-02-14T06:38:58;7.40;99.90
21167;DHT22;10741;52.272;9.580;2024-02-14T06:41:24;7.40;99.90
21167;DHT22;10741;52.272;9.580;2024-02-14T06:43:49;7.40;99.90
21167;DHT22;10741;52.272;9.580;2024-02-14T06:46:15;7.40;99.90
21167;DHT22;10741;52.272;9.580;2024-02-14T06:48:41;7.40;99.90
21167;DHT22;10741;52.272;9.580;2024-02-14T06:51:07;7.50;99.90
21167;DHT22;10741;52.272;9.580;2024-02-14T06:53:33;7.40;99.90
21167;DHT22;10741;52.272;9.580;2024-02-14T06:55:59;7.40;99.90
21167;DHT22;10741;52.272;9.580;2024-02-14T06:58:24;7.40;99.90
21167;DHT22;10741;52.272;9.580;2024-02-14T07:00:50;7.40;99.90
21167;DHT22;10741;52.272;9.580;2024-02-14T07:03:16;7.50;99.90
21167;DHT22;10741;52.272;9.580;2024-02-14T07:05:42;7.50;99.90
21167;DHT22;10741;52.272;9.580;2024-02-14T07:08:08;7.50;99.90
21167;DHT22;10741;52.272;9.580;2024-02-14T07:10:33;7.50;99.90
21167;DHT22;10741;52.272;9.580;2024-02-14T07:12:59;7.50;99.90
21167;DHT22;10741;52.272;9.580;2024-02-14T07:15:24;7.50;99.90
21167;DHT22;10741;52.272;9.580;2024-02-14T07:17:54;7.60;99.90
21167;DHT22;10741;52.272;9.580;2024-02-14T07:20:21;7.60;99.90
21167;DHT22;10741;52.272;9.580;2024-02-14T07:22:47;7.70;99.90
21167;DHT22;10741;52.272;9.580;2024-02-14T07:25:13;7.70;99.90
21167;DHT22;10741;52.272;9.580;2024-02-14T07:27:40;7.70;99.90
21167;DHT22;10741;52.272;9.580;2024-02-14T07:30:06;7.70;99.90
21167;DHT22;10741;52.272;9.580;2024-02-14T07:32:32;7.70;99.90
21167;DHT22;10741;52.272;9.580;2024-02-14T07:34:57;7.80;99.90
21167;DHT22;10741;52.272;9.580;2024-02-14T07:37:23;7.80;99.90
21167;DHT22;10741;52.272;9.580;2024-02-14T07:39:49;7.80;99.90
21167;DHT22;10741;52.272;9.580;2024-02-14T07:42:15;7.90;99.90
21167;DHT22;10741;52.272;9.580;2024-02-14T07:44:41;7.90;99.90
21167;DHT22;10741;52.272;9.580;2024-02-14T07:47:07;7.90;99.90
21167;DHT22;10741;52.272;9.580;2024-02-14T07:49:32;7.90;99.90
21167;DHT22;10741;52.272;9.580;2024-02-14T07:51:58;7.90;99.90
21167;DHT22;10741;52.272;9.580;2024-02-14T07:54:24;8.00;99.90
21167;DHT22;10741;52.272;9.580;2024-02-14T07:56:50;8.00;99.90
21167;DHT22;10741;52.272;9.580;2024-02-14T07:59:16;8.00;99.90
21167;DHT22;10741;52.272;9.580;2024-02-14T08:01:42;8.00;99.90
21167;DHT22;10741;52.272;9.580;2024-02-14T08:04:09;8.10;99.90
21167;DHT22;10741;52.272;9.580;2024-02-14T08:06:34;8.10;99.90
21167;DHT22;10741;52.272;9.580;2024-02-14T08:09:00;8.10;99.90
21167;DHT22;10741;52.272;9.580;2024-02-14T08:11:28;8.20;99.90
21167;DHT22;10741;52.272;9.580;2024-02-14T08:13:54;8.20;99.90
21167;DHT22;10741;52.272;9.580;2024-02-14T08:16:20;8.20;99.90
21167;DHT22;10741;52.272;9.580;2024-02-14T08:18:46;8.20;99.90
21167;DHT22;10741;52.272;9.580;2024-02-14T08:21:14;8.30;99.90
21167;DHT22;10741;52.272;9.580;2024-02-14T08:23:39;8.30;99.90
21167;DHT22;10741;52.272;9.580;2024-02-14T08:26:07;8.30;99.90
21167;DHT22;10741;52.272;9.580;2024-02-14T08:28:38;8.30;99.90
21167;DHT22;10741;52.272;9.580;2024-02-14T08:31:10;8.30;99.90
21167;DHT22;10741;52.272;9.580;2024-02-14T08:33:36;8.40;99.90
21167;DHT22;10741;52.272;9.580;2024-02-14T08:36:03;8.40;99.90
21167;DHT22;10741;52.272;9.580;2024-02-14T08:38:29;8.40;99.90
21167;DHT22;10741;52.272;9.580;2024-02-14T08:40:54;8.40;99.90
21167;DHT22;10741;52.272;9.580;2024-02-14T08:43:20;8.40;99.90
21167;DHT22;10741;52.272;9.580;2024-02-14T08:45:47;8.40;99.90
21167;DHT22;10741;52.272;9.580;2024-02-14T08:48:13;8.50;99.90
21167;DHT22;10741;52.272;9.580;2024-02-14T08:50:38;8.50;99.90
21167;DHT22;10741;52.272;9.580;2024-02-14T08:53:04;8.60;99.90
21167;DHT22;10741;52.272;9.580;2024-02-14T08:55:30;8.70;99.90
21167;DHT22;10741;52.272;9.580;2024-02-14T08:57:58;8.80;99.90
21167;DHT22;10741;52.272;9.580;2024-02-14T09:00:24;8.80;99.90
21167;DHT22;10741;52.272;9.580;2024-02-14T09:02:49;9.00;99.90
21167;DHT22;10741;52.272;9.580;2024-02-14T09:05:15;9.00;99.90
21167;DHT22;10741;52.272;9.580;2024-02-14T09:07:42;9.10;99.90
21167;DHT22;10741;52.272;9.580;2024-02-14T09:10:10;9.10;99.90
21167;DHT22;10741;52.272;9.580;2024-02-14T09:12:38;9.20;99.90
21167;DHT22;10741;52.272;9.580;2024-02-14T09:15:07;9.20;99.90
21167;DHT22;10741;52.272;9.580;2024-02-14T09:17:32;9.20;99.90
21167;DHT22;10741;52.272;9.580;2024-02-14T09:19:58;9.30;99.90
21167;DHT22;10741;52.272;9.580;2024-02-14T09:22:24;9.30;99.90
21167;DHT22;10741;52.272;9.580;2024-02-14T09:24:50;9.30;99.90
21167;DHT22;10741;52.272;9.580;2024-02-14T09:27:16;9.30;99.90
21167;DHT22;10741;52.272;9.580;2024-02-14T09:29:42;9.30;99.90
21167;DHT22;10741;52.272;9.580;2024-02-14T09:32:08;9.30;99.90
21167;DHT22;10741;52.272;9.580;2024-02-14T09:34:34;9.40;99.90
21167;DHT22;10741;52.272;9.580;2024-02-14T09:37:00;9.40;99.90
21167;DHT22;10741;52.272;9.580;2024-02-14T09:39:26;9.40;99.90
21167;DHT22;10741;52.272;9.580;2024-02-14T09:41:54;9.50;99.90
21167;DHT22;10741;52.272;9.580;2024-02-14T09:44:27;9.60;99.90
21167;DHT22;10741;52.272;9.580;2024-02-14T09:46:54;9.60;99.90
21167;DHT22;10741;52.272;9.580;2024-02-14T09:49:21;9.60;99.90
21167;DHT22;10741;52.272;9.580;2024-02-14T09:51:48;9.70;99.90
21167;DHT22;10741;52.272;9.580;2024-02-14T09:54:15;9.90;99.90
21167;DHT22;10741;52.272;9.580;2024-02-14T09:56:43;10.00;99.90
21167;DHT22;10741;52.272;9.580;2024-02-14T09:59:13;10.10;99.90
21167;DHT22;10741;52.272;9.580;2024-02-14T10:01:40;10.10;99.90
21167;DHT22;10741;52.272;9.580;2024-02-14T10:04:06;10.00;99.90
21167;DHT22;10741;52.272;9.580;2024-02-14T10:06:32;9.90;99.90
21167;DHT22;10741;52.272;9.580;2024-02-14T10:08:59;10.00;99.90
21167;DHT22;10741;52.272;9.580;2024-02-14T10:11:24;10.00;99.90
21167;DHT22;10741;52.272;9.580;2024-02-14T10:13:52;10.00;99.90
21167;DHT22;10741;52.272;9.580;2024-02-14T10:16:19;10.00;99.90
21167;DHT22;10741;52.272;9.580;2024-02-14T10:18:48;10.20;99.90
21167;DHT22;10741;52.272;9.580;2024-02-14T10:21:16;10.30;99.90
21167;DHT22;10741;52.272;9.580;2024-02-14T10:23:45;10.40;99.90
21167;DHT22;10741;52.272;9.580;2024-02-14T10:26:15;10.40;99.90
21167;DHT22;10741;52.272;9.580;2024-02-14T10:28:42;10.40;99.90
21167;DHT22;10741;52.272;9.580;2024-02-14T10:31:09;10.40;99.90
21167;DHT22;10741;52.272;9.580;2024-02-14T10:33:35;10.50;99.90
21167;DHT22;10741;52.272;9.580;2024-02-14T10:36:01;10.60;99.90
21167;DHT22;10741;52.272;9.580;2024-02-14T10:38:31;10.80;99.90
21167;DHT22;10741;52.272;9.580;2024-02-14T10:41:00;10.80;99.90
21167;DHT22;10741;52.272;9.580;2024-02-14T10:43:26;10.80;99.90
21167;DHT22;10741;52.272;9.580;2024-02-14T10:45:53;10.80;99.90
21167;DHT22;10741;52.272;9.580;2024-02-14T10:48:22;10.80;99.90
21167;DHT22;10741;52.272;9.580;2024-02-14T10:50:54;10.80;99.90
21167;DHT22;10741;52.272;9.580;2024-02-14T10:53:25;10.80;99.90
21167;DHT22;10741;52.272;9.580;2024-02-14T10:55:51;10.80;99.90
21167;DHT22;10741;52.272;9.580;2024-02-14T10:58:18;10.80;99.90
21167;DHT22;10741;52.272;9.580;2024-02-14T11:00:45;10.80;99.90
21167;DHT22;10741;52.272;9.580;2024-02-14T11:03:11;11.00;99.90
21167;DHT22;10741;52.272;9.580;2024-02-14T11:05:46;11.10;99.90
21167;DHT22;10741;52.272;9.580;2024-02-14T11:08:19;11.40;99.90
21167;DHT22;10741;52.272;9.580;2024-02-14T11:10:54;11.50;99.90
21167;DHT22;10741;52.272;9.580;2024-02-14T11:13:21;11.50;99.90
21167;DHT22;10741;52.272;9.580;2024-02-14T11:15:51;11.30;99.90
21167;DHT22;10741;52.272;9.580;2024-02-14T11:18:27;11.30;99.90
21167;DHT22;10741;52.272;9.580;2024-02-14T11:20:56;11.40;99.90
21167;DHT22;10741;52.272;9.580;2024-02-14T11:23:23;11.30;99.90
21167;DHT22;10741;52.272;9.580;2024-02-14T11:25:50;11.30;99.90
21167;DHT22;10741;52.272;9.580;2024-02-14T11:28:24;11.40;99.90
21167;DHT22;10741;52.272;9.580;2024-02-14T11:30:51;11.60;99.90
21167;DHT22;10741;52.272;9.580;2024-02-14T11:33:18;11.60;99.90
21167;DHT22;10741;52.272;9.580;2024-02-14T11:35:46;11.80;99.90
21167;DHT22;10741;52.272;9.580;2024-02-14T11:38:13;11.90;99.90
21167;DHT22;10741;52.272;9.580;2024-02-14T11:40:39;12.00;99.90
21167;DHT22;10741;52.272;9.580;2024-02-14T11:43:15;11.80;99.90
21167;DHT22;10741;52.272;9.580;2024-02-14T11:45:43;11.60;99.90
21167;DHT22;10741;52.272;9.580;2024-02-14T11:48:14;11.50;99.90
21167;DHT22;10741;52.272;9.580;2024-02-14T11:50:40;11.70;99.90
21167;DHT22;10741;52.272;9.580;2024-02-14T11:53:07;11.70;99.90
21167;DHT22;10741;52.272;9.580;2024-02-14T11:55:37;11.50;99.90
21167;DHT22;10741;52.272;9.580;2024-02-14T11:58:10;11.30;99.90
21167;DHT22;10741;52.272;9.580;2024-02-14T12:00:40;11.30;99.90
21167;DHT22;10741;52.272;9.580;2024-02-14T12:03:21;11.20;99.90
21167;DHT22;10741;52.272;9.580;2024-02-14T12:05:50;11.30;99.90
21167;DHT22;10741;52.272;9.580;2024-02-14T12:08:16;11.20;99.90
21167;DHT22;10741;52.272;9.580;2024-02-14T12:10:43;11.10;99.90
21167;DHT22;10741;52.272;9.580;2024-02-14T12:13:13;11.10;99.90
21167;DHT22;10741;52.272;9.580;2024-02-14T12:15:49;11.10;99.90
21167;DHT22;10741;52.272;9.580;2024-02-14T12:18:16;11.00;99.90
21167;DHT22;10741;52.272;9.580;2024-02-14T12:20:43;11.00;99.90
21167;DHT22;10741;52.272;9.580;2024-02-14T12:23:15;11.10;99.90
21167;DHT22;10741;52.272;9.580;2024-02-14T12:25:43;11.00;99.90
21167;DHT22;10741;52.272;9.580;2024-02-14T12:28:14;10.90;99.90
21167;DHT22;10741;52.272;9.580;2024-02-14T12:30:48;10.90;99.90
21167;DHT22;10741;52.272;9.580;2024-02-14T12:33:16;10.90;99.90
21167;DHT22;10741;52.272;9.580;2024-02-14T12:35:47;11.00;99.90
21167;DHT22;10741;52.272;9.580;2024-02-14T12:38:14;11.10;99.90
21167;DHT22;10741;52.272;9.580;2024-02-14T12:40:40;11.00;99.90
21167;DHT22;10741;52.272;9.580;2024-02-14T12:43:10;11.00;99.90
21167;DHT22;10741;52.272;9.580;2024-02-14T12:45:40;11.00;99.90
21167;DHT22;10741;52.272;9.580;2024-02-14T12:48:07;11.00;99.90
21167;DHT22;10741;52.272;9.580;2024-02-14T12:50:37;11.10;99.90
21167;DHT22;10741;52.272;9.580;2024-02-14T12:53:04;11.20;99.90
21167;DHT22;10741;52.272;9.580;2024-02-14T12:55:29;11.30;99.90
21167;DHT22;10741;52.272;9.580;2024-02-14T12:57:56;11.40;99.90
21167;DHT22;10741;52.272;9.580;2024-02-14T13:00:23;11.60;99.90
21167;DHT22;10741;52.272;9.580;2024-02-14T13:02:49;11.60;99.90
21167;DHT22;10741;52.272;9.580;2024-02-14T13:05:15;11.70;99.90
21167;DHT22;10741;52.272;9.580;2024-02-14T13:07:42;11.70;99.90
21167;DHT22;10741;52.272;9.580;2024-02-14T13:10:08;11.60;99.90
21167;DHT22;10741;52.272;9.580;2024-02-14T13:12:38;11.60;99.90
21167;DHT22;10741;52.272;9.580;2024-02-14T13:15:08;11.50;99.90
21167;DHT22;10741;52.272;9.580;2024-02-14T13:17:33;11.50;99.90
21167;DHT22;10741;52.272;9.580;2024-02-14T13:19:59;11.50;99.90
21167;DHT22;10741;52.272;9.580;2024-02-14T13:22:28;11.50;99.90
21167;DHT22;10741;52.272;9.580;2024-02-14T13:24:54;11.50;99.90
21167;DHT22;10741;52.272;9.580;2024-02-14T13:27:21;11.50;99.90
21167;DHT22;10741;52.272;9.580;2024-02-14T13:29:48;11.70;99.90
21167;DHT22;10741;52.272;9.580;2024-02-14T13:32:15;11.80;99.90
21167;DHT22;10741;52.272;9.580;2024-02-14T13:34:41;12.00;99.90
21167;DHT22;10741;52.272;9.580;2024-02-14T13:37:09;12.10;99.90
21167;DHT22;10741;52.272;9.580;2024-02-14T13:39:35;12.10;99.90
21167;DHT22;10741;52.272;9.580;2024-02-14T13:42:01;12.10;99.90
21167;DHT22;10741;52.272;9.580;2024-02-14T13:44:27;12.00;99.90
21167;DHT22;10741;52.272;9.580;2024-02-14T13:46:53;11.90;99.90
21167;DHT22;10741;52.272;9.580;2024-02-14T13:49:19;11.80;99.90
21167;DHT22;10741;52.272;9.580;2024-02-14T13:51:52;11.80;99.90
21167;DHT22;10741;52.272;9.580;2024-02-14T13:54:18;11.80;99.90
21167;DHT22;10741;52.272;9.580;2024-02-14T13:56:44;11.70;99.90
21167;DHT22;10741;52.272;9.580;2024-02-14T13:59:10;11.70;99.90
21167;DHT22;10741;52.272;9.580;2024-02-14T14:01:36;11.60;99.90
21167;DHT22;10741;52.272;9.580;2024-02-14T14:04:03;11.60;99.90
21167;DHT22;10741;52.272;9.580;2024-02-14T14:06:30;11.50;99.90
21167;DHT22;10741;52.272;9.580;2024-02-14T14:08:56;11.50;99.90
21167;DHT22;10741;52.272;9.580;2024-02-14T14:11:21;11.60;99.90
21167;DHT22;10741;52.272;9.580;2024-02-14T14:13:47;11.60;99.90
21167;DHT22;10741;52.272;9.580;2024-02-14T14:16:13;11.60;99.90
21167;DHT22;10741;52.272;9.580;2024-02-14T14:18:38;11.70;99.90
21167;DHT22;10741;52.272;9.580;2024-02-14T14:21:04;11.80;99.90
21167;DHT22;10741;52.272;9.580;2024-02-14T14:23:30;11.80;99.90
21167;DHT22;10741;52.272;9.580;2024-02-14T14:25:58;11.80;99.90
21167;DHT22;10741;52.272;9.580;2024-02-14T14:28:24;11.70;99.90
21167;DHT22;10741;52.272;9.580;2024-02-14T14:30:56;11.60;99.90
21167;DHT22;10741;52.272;9.580;2024-02-14T14:33:22;11.60;99.90
21167;DHT22;10741;52.272;9.580;2024-02-14T14:35:48;11.60;99.90
21167;DHT22;10741;52.272;9.580;2024-02-14T14:38:19;11.60;99.90
21167;DHT22;10741;52.272;9.580;2024-02-14T14:40:45;11.60;99.90
21167;DHT22;10741;52.272;9.580;2024-02-14T14:43:12;11.50;99.90
21167;DHT22;10741;52.272;9.580;2024-02-14T14:45:38;11.50;99.90
21167;DHT22;10741;52.272;9.580;2024-02-14T14:48:04;11.50;99.90
21167;DHT22;10741;52.272;9.580;2024-02-14T14:50:30;11.40;99.90
21167;DHT22;10741;52.272;9.580;2024-02-14T14:52:57;11.40;99.90
21167;DHT22;10741;52.272;9.580;2024-02-14T14:55:24;11.30;99.90
21167;DHT22;10741;52.272;9.580;2024-02-14T14:57:50;11.30;99.90
21167;DHT22;10741;52.272;9.580;2024-02-14T15:00:17;11.20;99.90
21167;DHT22;10741;52.272;9.580;2024-02-14T15:02:43;11.20;99.90
21167;DHT22;10741;52.272;9.580;2024-02-14T15:05:13;11.20;99.90
21167;DHT22;10741;52.272;9.580;2024-02-14T15:07:39;11.10;99.90
21167;DHT22;10741;52.272;9.580;2024-02-14T15:10:06;11.00;99.90
21167;DHT22;10741;52.272;9.580;2024-02-14T15:12:33;11.00;99.90
21167;DHT22;10741;52.272;9.580;2024-02-14T15:15:04;11.00;99.90
21167;DHT22;10741;52.272;9.580;2024-02-14T15:17:30;11.00;99.90
21167;DHT22;10741;52.272;9.580;2024-02-14T15:19:56;11.00;99.90
21167;DHT22;10741;52.272;9.580;2024-02-14T15:22:23;10.90;99.90
21167;DHT22;10741;52.272;9.580;2024-02-14T15:24:55;10.90;99.90
21167;DHT22;10741;52.272;9.580;2024-02-14T15:27:20;11.00;99.90
21167;DHT22;10741;52.272;9.580;2024-02-14T15:29:52;11.00;99.90
21167;DHT22;10741;52.272;9.580;2024-02-14T15:32:37;11.00;99.90
21167;DHT22;10741;52.272;9.580;2024-02-14T15:35:21;10.90;99.90
21167;DHT22;10741;52.272;9.580;2024-02-14T15:37:47;10.90;99.90